sensor_id;sensor_type;location;lat;lon;timestamp;pressure;altitude;pressure_sealevel;temperature;humidity
45275;BME280;31019;43.780;25.948;2023-08-06T00:01:53;99672.97;;;23.76;100.00
45275;BME280;31019;43.780;25.948;2023-08-06T00:04:20;99674.69;;;23.81;100.00
45275;BME280;31019;43.780;25.948;2023-08-06T00:06:46;99660.47;;;23.49;100.00
45275;BME280;31019;43.780;25.948;2023-08-06T00:09:13;99659.06;;;23.61;100.00
45275;BME280;31019;43.780;25.948;2023-08-06T00:11:41;99660.78;;;23.48;100.00
45275;BME280;31019;43.780;25.948;2023-08-06T00:14:09;99657.00;;;23.58;100.00
45275;BME280;31019;43.780;25.948;2023-08-06T00:16:36;99654.59;;;23.56;100.00
45275;BME280;31019;43.780;25.948;2023-08-06T00:19:03;99638.16;;;23.35;100.00
45275;BME280;31019;43.780;25.948;2023-08-06T00:21:30;99624.31;;;23.45;100.00
45275;BME280;31019;43.780;25.948;2023-08-06T00:23:57;99630.66;;;23.49;100.00
45275;BME280;31019;43.780;25.948;2023-08-06T00:26:24;99634.50;;;23.48;100.00
45275;BME280;31019;43.780;25.948;2023-08-06T00:28:52;99648.53;;;23.68;100.00
45275;BME280;31019;43.780;25.948;2023-08-06T00:31:19;99647.25;;;23.65;100.00
45275;BME280;31019;43.780;25.948;2023-08-06T00:33:46;99647.56;;;23.55;100.00
45275;BME280;31019;43.780;25.948;2023-08-06T00:36:14;99641.19;;;23.60;100.00
45275;BME280;31019;43.780;25.948;2023-08-06T00:38:41;99632.41;;;23.54;100.00
45275;BME280;31019;43.780;25.948;2023-08-06T00:41:08;99620.31;;;23.60;100.00
45275;BME280;31019;43.780;25.948;2023-08-06T00:43:35;99626.88;;;23.76;100.00
45275;BME280;31019;43.780;25.948;2023-08-06T00:46:04;99617.63;;;23.77;100.00
45275;BME280;31019;43.780;25.948;2023-08-06T00:48:33;99624.31;;;23.71;100.00
45275;BME280;31019;43.780;25.948;2023-08-06T00:51:01;99643.78;;;23.82;100.00
45275;BME280;31019;43.780;25.948;2023-08-06T00:53:28;99650.28;;;23.90;100.00
45275;BME280;31019;43.780;25.948;2023-08-06T00:55:55;99638.94;;;24.05;100.00
45275;BME280;31019;43.780;25.948;2023-08-06T00:58:22;99626.09;;;23.85;100.00
45275;BME280;31019;43.780;25.948;2023-08-06T01:00:49;99642.81;;;23.78;100.00
45275;BME280;31019;43.780;25.948;2023-08-06T01:03:18;99629.25;;;23.87;100.00
45275;BME280;31019;43.780;25.948;2023-08-06T01:05:45;99637.22;;;23.57;100.00
45275;BME280;31019;43.780;25.948;2023-08-06T01:08:25;99646.78;;;23.63;100.00
45275;BME280;31019;43.780;25.948;2023-08-06T01:10:59;99644.22;;;23.49;100.00
45275;BME280;31019;43.780;25.948;2023-08-06T01:13:32;99639.13;;;23.57;100.00
45275;BME280;31019;43.780;25.948;2023-08-06T01:16:00;99636.09;;;23.67;100.00
45275;BME280;31019;43.780;25.948;2023-08-06T01:18:29;99640.25;;;23.64;100.00
45275;BME280;31019;43.780;25.948;2023-08-06T01:20:58;99644.66;;;23.25;100.00
45275;BME280;31019;43.780;25.948;2023-08-06T01:23:25;99649.94;;;23.57;100.00
45275;BME280;31019;43.780;25.948;2023-08-06T01:25:58;99653.28;;;23.27;100.00
45275;BME280;31019;43.780;25.948;2023-08-06T01:28:37;99663.75;;;23.12;100.00
45275;BME280;31019;43.780;25.948;2023-08-06T01:31:10;99673.13;;;22.97;100.00
45275;BME280;31019;43.780;25.948;2023-08-06T01:33:44;99660.44;;;22.83;100.00
45275;BME280;31019;43.780;25.948;2023-08-06T01:36:15;99672.66;;;22.63;100.00
45275;BME280;31019;43.780;25.948;2023-08-06T01:38:43;99670.09;;;22.98;100.00
45275;BME280;31019;43.780;25.948;2023-08-06T01:41:10;99689.00;;;22.27;100.00
45275;BME280;31019;43.780;25.948;2023-08-06T01:43:37;99696.00;;;22.28;100.00
45275;BME280;31019;43.780;25.948;2023-08-06T01:46:03;99701.28;;;22.96;100.00
45275;BME280;31019;43.780;25.948;2023-08-06T01:48:30;99700.41;;;23.18;100.00
45275;BME280;31019;43.780;25.948;2023-08-06T01:50:57;99687.06;;;23.30;100.00
45275;BME280;31019;43.780;25.948;2023-08-06T01:53:26;99686.44;;;23.33;100.00
45275;BME280;31019;43.780;25.948;2023-08-06T01:55:52;99682.94;;;23.50;100.00
45275;BME280;31019;43.780;25.948;2023-08-06T01:58:19;99682.78;;;23.38;100.00
45275;BME280;31019;43.780;25.948;2023-08-06T02:00:46;99689.47;;;23.40;100.00
45275;BME280;31019;43.780;25.948;2023-08-06T02:03:13;99677.50;;;23.24;100.00
45275;BME280;31019;43.780;25.948;2023-08-06T02:05:40;99663.44;;;23.13;100.00
45275;BME280;31019;43.780;25.948;2023-08-06T02:08:07;99671.88;;;23.03;100.00
45275;BME280;31019;43.780;25.948;2023-08-06T02:10:35;99671.59;;;22.82;100.00
45275;BME280;31019;43.780;25.948;2023-08-06T02:13:02;99690.84;;;22.80;100.00
45275;BME280;31019;43.780;25.948;2023-08-06T02:15:29;99693.53;;;22.72;100.00
45275;BME280;31019;43.780;25.948;2023-08-06T02:17:56;99696.81;;;22.60;100.00
45275;BME280;31019;43.780;25.948;2023-08-06T02:20:23;99690.31;;;22.38;100.00
45275;BME280;31019;43.780;25.948;2023-08-06T02:22:50;99674.41;;;22.37;100.00
45275;BME280;31019;43.780;25.948;2023-08-06T02:25:16;99695.50;;;22.26;100.00
45275;BME280;31019;43.780;25.948;2023-08-06T02:27:45;99685.53;;;22.13;100.00
45275;BME280;31019;43.780;25.948;2023-08-06T02:30:12;99686.19;;;21.96;100.00
45275;BME280;31019;43.780;25.948;2023-08-06T02:32:39;99697.13;;;21.91;100.00
45275;BME280;31019;43.780;25.948;2023-08-06T02:35:06;99710.25;;;21.84;100.00
45275;BME280;31019;43.780;25.948;2023-08-06T02:37:34;99702.94;;;21.48;100.00
45275;BME280;31019;43.780;25.948;2023-08-06T02:40:01;99699.63;;;21.51;100.00
45275;BME280;31019;43.780;25.948;2023-08-06T02:42:28;99691.47;;;21.42;100.00
45275;BME280;31019;43.780;25.948;2023-08-06T02:44:56;99700.56;;;21.83;100.00
45275;BME280;31019;43.780;25.948;2023-08-06T02:47:23;99697.41;;;21.67;100.00
45275;BME280;31019;43.780;25.948;2023-08-06T02:49:50;99706.31;;;21.54;100.00
45275;BME280;31019;43.780;25.948;2023-08-06T02:52:18;99703.34;;;21.27;100.00
45275;BME280;31019;43.780;25.948;2023-08-06T02:54:45;99711.44;;;21.41;100.00
45275;BME280;31019;43.780;25.948;2023-08-06T02:57:12;99713.88;;;21.43;100.00
45275;BME280;31019;43.780;25.948;2023-08-06T02:59:38;99718.06;;;21.49;100.00
45275;BME280;31019;43.780;25.948;2023-08-06T03:02:07;99700.97;;;21.40;100.00
45275;BME280;31019;43.780;25.948;2023-08-06T03:04:34;99712.84;;;21.25;100.00
45275;BME280;31019;43.780;25.948;2023-08-06T03:07:00;99708.94;;;21.45;100.00
45275;BME280;31019;43.780;25.948;2023-08-06T03:09:27;99706.03;;;21.41;100.00
45275;BME280;31019;43.780;25.948;2023-08-06T03:11:54;99694.03;;;21.34;100.00
45275;BME280;31019;43.780;25.948;2023-08-06T03:14:21;99698.53;;;21.38;100.00
45275;BME280;31019;43.780;25.948;2023-08-06T03:16:48;99689.22;;;21.44;100.00
45275;BME280;31019;43.780;25.948;2023-08-06T03:19:16;99697.47;;;21.39;100.00
45275;BME280;31019;43.780;25.948;2023-08-06T03:21:43;99706.44;;;21.21;100.00
45275;BME280;31019;43.780;25.948;2023-08-06T03:24:10;99696.03;;;21.28;100.00
45275;BME280;31019;43.780;25.948;2023-08-06T03:26:37;99706.34;;;21.26;100.00
45275;BME280;31019;43.780;25.948;2023-08-06T03:29:03;99700.97;;;21.12;100.00
45275;BME280;31019;43.780;25.948;2023-08-06T03:31:30;99698.88;;;21.37;100.00
45275;BME280;31019;43.780;25.948;2023-08-06T03:33:57;99703.22;;;21.33;100.00
45275;BME280;31019;43.780;25.948;2023-08-06T03:36:26;99702.84;;;21.12;100.00
45275;BME280;31019;43.780;25.948;2023-08-06T03:38:53;99701.13;;;21.02;100.00
45275;BME280;31019;43.780;25.948;2023-08-06T03:41:20;99696.44;;;21.21;100.00
45275;BME280;31019;43.780;25.948;2023-08-06T03:43:49;99688.25;;;21.40;100.00
45275;BME280;31019;43.780;25.948;2023-08-06T03:46:19;99682.19;;;21.57;100.00
45275;BME280;31019;43.780;25.948;2023-08-06T03:48:46;99683.06;;;21.66;100.00
45275;BME280;31019;43.780;25.948;2023-08-06T03:51:13;99688.44;;;21.58;100.00
45275;BME280;31019;43.780;25.948;2023-08-06T03:53:41;99682.09;;;21.62;100.00
45275;BME280;31019;43.780;25.948;2023-08-06T03:56:08;99692.81;;;21.90;100.00
45275;BME280;31019;43.780;25.948;2023-08-06T03:58:35;99683.97;;;21.76;100.00
45275;BME280;31019;43.780;25.948;2023-08-06T04:01:02;99669.53;;;21.80;100.00
45275;BME280;31019;43.780;25.948;2023-08-06T04:03:29;99661.31;;;21.85;100.00
45275;BME280;31019;43.780;25.948;2023-08-06T04:05:56;99671.88;;;21.95;100.00
45275;BME280;31019;43.780;25.948;2023-08-06T04:08:23;99664.16;;;21.66;100.00
45275;BME280;31019;43.780;25.948;2023-08-06T04:10:52;99670.53;;;22.07;100.00
45275;BME280;31019;43.780;25.948;2023-08-06T04:13:19;99661.19;;;22.13;100.00
45275;BME280;31019;43.780;25.948;2023-08-06T04:15:46;99657.34;;;22.28;100.00
45275;BME280;31019;43.780;25.948;2023-08-06T04:18:13;99668.38;;;22.17;100.00
45275;BME280;31019;43.780;25.948;2023-08-06T04:20:43;99674.72;;;22.13;100.00
45275;BME280;31019;43.780;25.948;2023-08-06T04:23:11;99671.88;;;21.95;100.00
45275;BME280;31019;43.780;25.948;2023-08-06T04:25:38;99672.69;;;22.41;100.00
45275;BME280;31019;43.780;25.948;2023-08-06T04:28:07;99669.47;;;22.39;100.00
45275;BME280;31019;43.780;25.948;2023-08-06T04:30:34;99664.00;;;22.53;100.00
45275;BME280;31019;43.780;25.948;2023-08-06T04:33:01;99667.66;;;22.26;100.00
45275;BME280;31019;43.780;25.948;2023-08-06T04:35:28;99671.13;;;22.49;100.00
45275;BME280;31019;43.780;25.948;2023-08-06T04:37:55;99677.75;;;22.34;100.00
45275;BME280;31019;43.780;25.948;2023-08-06T04:40:22;99678.69;;;22.38;100.00
45275;BME280;31019;43.780;25.948;2023-08-06T04:42:49;99678.81;;;22.55;100.00
45275;BME280;31019;43.780;25.948;2023-08-06T04:45:17;99681.59;;;22.73;100.00
45275;BME280;31019;43.780;25.948;2023-08-06T04:47:44;99682.91;;;22.84;100.00
45275;BME280;31019;43.780;25.948;2023-08-06T04:50:11;99668.50;;;22.97;100.00
45275;BME280;31019;43.780;25.948;2023-08-06T04:52:38;99675.59;;;22.53;100.00
45275;BME280;31019;43.780;25.948;2023-08-06T04:55:05;99666.06;;;22.56;100.00
45275;BME280;31019;43.780;25.948;2023-08-06T04:57:32;99662.66;;;22.73;100.00
45275;BME280;31019;43.780;25.948;2023-08-06T04:59:59;99658.91;;;22.60;100.00
45275;BME280;31019;43.780;25.948;2023-08-06T05:02:27;99659.38;;;22.84;100.00
45275;BME280;31019;43.780;25.948;2023-08-06T05:04:54;99660.88;;;22.68;100.00
45275;BME280;31019;43.780;25.948;2023-08-06T05:07:21;99648.16;;;22.77;100.00
45275;BME280;31019;43.780;25.948;2023-08-06T05:09:48;99651.38;;;22.79;100.00
45275;BME280;31019;43.780;25.948;2023-08-06T05:12:15;99655.88;;;22.93;100.00
45275;BME280;31019;43.780;25.948;2023-08-06T05:14:41;99647.53;;;22.40;100.00
45275;BME280;31019;43.780;25.948;2023-08-06T05:17:08;99636.72;;;22.80;100.00
45275;BME280;31019;43.780;25.948;2023-08-06T05:19:37;99654.84;;;22.71;100.00
45275;BME280;31019;43.780;25.948;2023-08-06T05:22:04;99654.34;;;22.69;100.00
45275;BME280;31019;43.780;25.948;2023-08-06T05:24:31;99663.28;;;22.78;100.00
45275;BME280;31019;43.780;25.948;2023-08-06T05:26:57;99652.78;;;23.17;100.00
45275;BME280;31019;43.780;25.948;2023-08-06T05:29:24;99640.50;;;23.11;100.00
45275;BME280;31019;43.780;25.948;2023-08-06T05:31:52;99645.66;;;23.47;100.00
45275;BME280;31019;43.780;25.948;2023-08-06T05:34:19;99652.50;;;23.44;100.00
45275;BME280;31019;43.780;25.948;2023-08-06T05:36:49;99640.13;;;23.69;100.00
45275;BME280;31019;43.780;25.948;2023-08-06T05:39:18;99635.13;;;23.63;100.00
45275;BME280;31019;43.780;25.948;2023-08-06T05:41:45;99630.53;;;23.81;100.00
45275;BME280;31019;43.780;25.948;2023-08-06T05:44:12;99627.47;;;23.65;100.00
45275;BME280;31019;43.780;25.948;2023-08-06T05:46:39;99634.81;;;24.08;100.00
45275;BME280;31019;43.780;25.948;2023-08-06T05:49:05;99626.66;;;24.16;100.00
45275;BME280;31019;43.780;25.948;2023-08-06T05:51:32;99621.09;;;24.04;100.00
45275;BME280;31019;43.780;25.948;2023-08-06T05:53:59;99623.44;;;24.14;100.00
45275;BME280;31019;43.780;25.948;2023-08-06T05:56:26;99630.38;;;23.86;100.00
45275;BME280;31019;43.780;25.948;2023-08-06T05:58:53;99628.69;;;24.28;100.00
45275;BME280;31019;43.780;25.948;2023-08-06T06:01:20;99628.19;;;24.43;100.00
45275;BME280;31019;43.780;25.948;2023-08-06T06:03:49;99627.91;;;24.28;100.00
45275;BME280;31019;43.780;25.948;2023-08-06T06:06:16;99626.38;;;23.74;100.00
45275;BME280;31019;43.780;25.948;2023-08-06T06:08:44;99620.16;;;23.39;100.00
45275;BME280;31019;43.780;25.948;2023-08-06T06:11:13;99610.41;;;23.29;100.00
45275;BME280;31019;43.780;25.948;2023-08-06T06:13:40;99612.81;;;23.92;100.00
45275;BME280;31019;43.780;25.948;2023-08-06T06:16:06;99611.69;;;23.84;100.00
45275;BME280;31019;43.780;25.948;2023-08-06T06:18:33;99617.50;;;24.30;100.00
45275;BME280;31019;43.780;25.948;2023-08-06T06:21:00;99611.47;;;24.24;100.00
45275;BME280;31019;43.780;25.948;2023-08-06T06:23:27;99625.16;;;24.45;100.00
45275;BME280;31019;43.780;25.948;2023-08-06T06:25:54;99627.81;;;23.89;100.00
45275;BME280;31019;43.780;25.948;2023-08-06T06:28:22;99627.13;;;24.18;100.00
45275;BME280;31019;43.780;25.948;2023-08-06T06:30:49;99621.88;;;24.13;100.00
45275;BME280;31019;43.780;25.948;2023-08-06T06:33:16;99618.56;;;23.64;100.00
45275;BME280;31019;43.780;25.948;2023-08-06T06:35:43;99618.66;;;24.20;100.00
45275;BME280;31019;43.780;25.948;2023-08-06T06:38:10;99614.31;;;24.36;100.00
45275;BME280;31019;43.780;25.948;2023-08-06T06:40:37;99613.75;;;24.05;100.00
45275;BME280;31019;43.780;25.948;2023-08-06T06:43:04;99631.25;;;24.25;100.00
45275;BME280;31019;43.780;25.948;2023-08-06T06:45:32;99632.16;;;24.55;100.00
45275;BME280;31019;43.780;25.948;2023-08-06T06:47:59;99614.34;;;24.28;100.00
45275;BME280;31019;43.780;25.948;2023-08-06T06:50:26;99613.03;;;24.34;100.00
45275;BME280;31019;43.780;25.948;2023-08-06T06:52:53;99613.75;;;23.96;100.00
45275;BME280;31019;43.780;25.948;2023-08-06T06:55:20;99611.09;;;25.74;100.00
45275;BME280;31019;43.780;25.948;2023-08-06T06:57:46;99617.56;;;25.27;100.00
45275;BME280;31019;43.780;25.948;2023-08-06T07:00:14;99612.31;;;25.43;100.00
45275;BME280;31019;43.780;25.948;2023-08-06T07:02:42;99618.03;;;26.62;100.00
45275;BME280;31019;43.780;25.948;2023-08-06T07:05:09;99631.22;;;25.61;100.00
45275;BME280;31019;43.780;25.948;2023-08-06T07:07:36;99628.94;;;26.17;100.00
45275;BME280;31019;43.780;25.948;2023-08-06T07:10:05;99630.91;;;26.28;100.00
45275;BME280;31019;43.780;25.948;2023-08-06T07:12:32;99630.69;;;26.34;100.00
45275;BME280;31019;43.780;25.948;2023-08-06T07:14:59;99634.25;;;26.59;100.00
45275;BME280;31019;43.780;25.948;2023-08-06T07:17:27;99643.91;;;26.68;100.00
45275;BME280;31019;43.780;25.948;2023-08-06T07:19:55;99636.09;;;26.67;100.00
45275;BME280;31019;43.780;25.948;2023-08-06T07:22:22;99635.28;;;25.33;100.00
45275;BME280;31019;43.780;25.948;2023-08-06T07:24:49;99642.06;;;24.89;100.00
45275;BME280;31019;43.780;25.948;2023-08-06T07:27:16;99639.13;;;26.53;100.00
45275;BME280;31019;43.780;25.948;2023-08-06T07:29:43;99634.19;;;25.68;100.00
45275;BME280;31019;43.780;25.948;2023-08-06T07:32:10;99646.41;;;25.11;100.00
45275;BME280;31019;43.780;25.948;2023-08-06T07:34:36;99643.28;;;25.00;100.00
45275;BME280;31019;43.780;25.948;2023-08-06T07:37:05;99647.00;;;25.46;100.00
45275;BME280;31019;43.780;25.948;2023-08-06T07:39:32;99651.75;;;26.12;100.00
45275;BME280;31019;43.780;25.948;2023-08-06T07:41:59;99648.94;;;25.88;100.00
45275;BME280;31019;43.780;25.948;2023-08-06T07:44:27;99651.97;;;25.86;100.00
45275;BME280;31019;43.780;25.948;2023-08-06T07:46:54;99642.97;;;24.63;100.00
45275;BME280;31019;43.780;25.948;2023-08-06T07:49:22;99640.88;;;25.28;100.00
45275;BME280;31019;43.780;25.948;2023-08-06T07:51:48;99640.25;;;24.63;100.00
45275;BME280;31019;43.780;25.948;2023-08-06T07:54:18;99638.44;;;25.35;100.00
45275;BME280;31019;43.780;25.948;2023-08-06T07:56:45;99642.22;;;25.43;100.00
45275;BME280;31019;43.780;25.948;2023-08-06T07:59:12;99630.81;;;25.71;100.00
45275;BME280;31019;43.780;25.948;2023-08-06T08:01:39;99643.09;;;25.05;100.00
45275;BME280;31019;43.780;25.948;2023-08-06T08:04:05;99648.09;;;24.95;100.00
45275;BME280;31019;43.780;25.948;2023-08-06T08:06:33;99638.94;;;24.99;100.00
45275;BME280;31019;43.780;25.948;2023-08-06T08:09:00;99649.03;;;24.99;100.00
45275;BME280;31019;43.780;25.948;2023-08-06T08:11:28;99646.22;;;26.21;100.00
45275;BME280;31019;43.780;25.948;2023-08-06T08:13:55;99652.69;;;26.28;100.00
45275;BME280;31019;43.780;25.948;2023-08-06T08:16:22;99652.84;;;26.11;100.00
45275;BME280;31019;43.780;25.948;2023-08-06T08:18:49;99658.78;;;26.83;100.00
45275;BME280;31019;43.780;25.948;2023-08-06T08:21:16;99664.81;;;27.26;100.00
45275;BME280;31019;43.780;25.948;2023-08-06T08:23:43;99683.63;;;26.57;100.00
45275;BME280;31019;43.780;25.948;2023-08-06T08:26:10;99692.41;;;27.12;100.00
45275;BME280;31019;43.780;25.948;2023-08-06T08:28:38;99687.16;;;27.44;100.00
45275;BME280;31019;43.780;25.948;2023-08-06T08:31:08;99688.59;;;26.55;100.00
45275;BME280;31019;43.780;25.948;2023-08-06T08:33:35;99686.28;;;27.15;100.00
45275;BME280;31019;43.780;25.948;2023-08-06T08:36:02;99687.41;;;26.44;100.00
45275;BME280;31019;43.780;25.948;2023-08-06T08:38:29;99690.69;;;26.95;100.00
45275;BME280;31019;43.780;25.948;2023-08-06T08:40:56;99687.03;;;26.54;100.00
45275;BME280;31019;43.780;25.948;2023-08-06T08:43:23;99679.19;;;27.14;100.00
45275;BME280;31019;43.780;25.948;2023-08-06T08:45:53;99677.94;;;28.17;100.00
45275;BME280;31019;43.780;25.948;2023-08-06T08:48:21;99680.50;;;27.69;100.00
45275;BME280;31019;43.780;25.948;2023-08-06T08:50:49;99695.97;;;27.65;100.00
45275;BME280;31019;43.780;25.948;2023-08-06T08:53:17;99703.38;;;27.52;100.00
45275;BME280;31019;43.780;25.948;2023-08-06T08:55:46;99694.78;;;27.91;100.00
45275;BME280;31019;43.780;25.948;2023-08-06T08:58:14;99698.00;;;27.80;100.00
45275;BME280;31019;43.780;25.948;2023-08-06T09:00:42;99695.16;;;27.64;100.00
45275;BME280;31019;43.780;25.948;2023-08-06T09:03:10;99688.16;;;28.20;100.00
45275;BME280;31019;43.780;25.948;2023-08-06T09:05:41;99671.38;;;27.37;100.00
45275;BME280;31019;43.780;25.948;2023-08-06T09:08:15;99664.81;;;28.66;100.00
45275;BME280;31019;43.780;25.948;2023-08-06T09:10:44;99678.16;;;27.55;100.00
45275;BME280;31019;43.780;25.948;2023-08-06T09:13:15;99679.19;;;27.14;100.00
45275;BME280;31019;43.780;25.948;2023-08-06T09:15:42;99681.44;;;26.50;100.00
45275;BME280;31019;43.780;25.948;2023-08-06T09:18:11;99689.38;;;27.66;100.00
45275;BME280;31019;43.780;25.948;2023-08-06T09:20:39;99682.34;;;27.53;100.00
45275;BME280;31019;43.780;25.948;2023-08-06T09:23:11;99678.34;;;27.75;100.00
45275;BME280;31019;43.780;25.948;2023-08-06T09:25:39;99674.25;;;27.81;100.00
45275;BME280;31019;43.780;25.948;2023-08-06T09:28:07;99646.03;;;28.49;100.00
45275;BME280;31019;43.780;25.948;2023-08-06T09:30:36;99645.63;;;27.62;100.00
45275;BME280;31019;43.780;25.948;2023-08-06T09:33:07;99637.53;;;27.78;100.00
45275;BME280;31019;43.780;25.948;2023-08-06T09:35:37;99639.59;;;27.29;100.00
45275;BME280;31019;43.780;25.948;2023-08-06T09:38:06;99634.06;;;27.53;100.00
45275;BME280;31019;43.780;25.948;2023-08-06T09:40:34;99619.09;;;27.88;100.00
45275;BME280;31019;43.780;25.948;2023-08-06T09:43:01;99627.25;;;26.58;100.00
45275;BME280;31019;43.780;25.948;2023-08-06T09:45:30;99612.47;;;26.83;100.00
45275;BME280;31019;43.780;25.948;2023-08-06T09:47:58;99621.06;;;26.48;100.00
45275;BME280;31019;43.780;25.948;2023-08-06T09:50:29;99643.41;;;25.75;100.00
45275;BME280;31019;43.780;25.948;2023-08-06T09:52:58;99648.25;;;25.91;100.00
45275;BME280;31019;43.780;25.948;2023-08-06T09:55:25;99638.13;;;26.58;100.00
45275;BME280;31019;43.780;25.948;2023-08-06T09:57:53;99631.22;;;25.19;100.00
45275;BME280;31019;43.780;25.948;2023-08-06T10:00:20;99653.25;;;25.89;100.00
45275;BME280;31019;43.780;25.948;2023-08-06T10:02:50;99647.13;;;26.37;100.00
45275;BME280;31019;43.780;25.948;2023-08-06T10:05:20;99668.25;;;25.44;100.00
45275;BME280;31019;43.780;25.948;2023-08-06T10:07:48;99698.22;;;25.15;100.00
45275;BME280;31019;43.780;25.948;2023-08-06T10:10:19;99697.06;;;25.16;100.00
45275;BME280;31019;43.780;25.948;2023-08-06T10:12:49;99716.75;;;25.04;100.00
45275;BME280;31019;43.780;25.948;2023-08-06T10:15:20;99685.84;;;25.47;100.00
45275;BME280;31019;43.780;25.948;2023-08-06T10:17:51;99641.66;;;26.13;100.00
45275;BME280;31019;43.780;25.948;2023-08-06T10:20:19;99650.66;;;24.61;100.00
45275;BME280;31019;43.780;25.948;2023-08-06T10:22:59;99688.38;;;24.19;100.00
45275;BME280;31019;43.780;25.948;2023-08-06T10:25:32;99729.56;;;24.30;100.00
45275;BME280;31019;43.780;25.948;2023-08-06T10:28:00;99745.22;;;24.16;100.00
45275;BME280;31019;43.780;25.948;2023-08-06T10:30:29;99741.69;;;25.06;100.00
45275;BME280;31019;43.780;25.948;2023-08-06T10:32:58;99756.19;;;25.19;100.00
45275;BME280;31019;43.780;25.948;2023-08-06T10:35:30;99739.50;;;24.90;100.00
45275;BME280;31019;43.780;25.948;2023-08-06T10:37:59;99739.00;;;24.24;100.00
45275;BME280;31019;43.780;25.948;2023-08-06T10:40:26;99717.72;;;24.35;100.00
45275;BME280;31019;43.780;25.948;2023-08-06T10:42:58;99683.06;;;24.58;100.00
45275;BME280;31019;43.780;25.948;2023-08-06T10:45:25;99655.28;;;24.61;100.00
45275;BME280;31019;43.780;25.948;2023-08-06T10:47:54;99641.91;;;24.85;100.00
45275;BME280;31019;43.780;25.948;2023-08-06T10:50:22;99643.59;;;24.99;100.00
45275;BME280;31019;43.780;25.948;2023-08-06T10:52:49;99647.91;;;25.71;100.00
45275;BME280;31019;43.780;25.948;2023-08-06T10:55:22;99674.16;;;24.40;100.00
45275;BME280;31019;43.780;25.948;2023-08-06T10:57:49;99685.59;;;24.63;100.00
45275;BME280;31019;43.780;25.948;2023-08-06T11:00:18;99689.94;;;24.38;100.00
45275;BME280;31019;43.780;25.948;2023-08-06T11:02:46;99727.03;;;23.73;100.00
45275;BME280;31019;43.780;25.948;2023-08-06T11:05:15;99744.88;;;24.26;100.00
45275;BME280;31019;43.780;25.948;2023-08-06T11:07:43;99757.81;;;23.86;100.00
45275;BME280;31019;43.780;25.948;2023-08-06T11:10:11;99772.31;;;24.07;100.00
45275;BME280;31019;43.780;25.948;2023-08-06T11:12:38;99768.19;;;24.36;100.00
45275;BME280;31019;43.780;25.948;2023-08-06T11:15:06;99763.22;;;24.55;100.00
45275;BME280;31019;43.780;25.948;2023-08-06T11:17:35;99741.03;;;24.53;100.00
45275;BME280;31019;43.780;25.948;2023-08-06T11:20:03;99726.03;;;24.56;100.00
45275;BME280;31019;43.780;25.948;2023-08-06T11:22:30;99731.50;;;24.94;100.00
45275;BME280;31019;43.780;25.948;2023-08-06T11:24:58;99718.53;;;25.00;100.00
45275;BME280;31019;43.780;25.948;2023-08-06T11:27:28;99706.97;;;24.73;100.00
45275;BME280;31019;43.780;25.948;2023-08-06T11:29:55;99709.41;;;25.04;100.00
45275;BME280;31019;43.780;25.948;2023-08-06T11:32:22;99703.69;;;24.97;100.00
45275;BME280;31019;43.780;25.948;2023-08-06T11:34:50;99688.59;;;23.97;100.00
45275;BME280;31019;43.780;25.948;2023-08-06T11:37:20;99679.09;;;25.53;100.00
45275;BME280;31019;43.780;25.948;2023-08-06T11:39:49;99666.22;;;25.41;100.00
45275;BME280;31019;43.780;25.948;2023-08-06T11:42:16;99665.97;;;25.55;100.00
45275;BME280;31019;43.780;25.948;2023-08-06T11:44:43;99658.28;;;25.57;100.00
45275;BME280;31019;43.780;25.948;2023-08-06T11:47:13;99670.69;;;25.16;100.00
45275;BME280;31019;43.780;25.948;2023-08-06T11:49:42;99674.63;;;25.27;100.00
45275;BME280;31019;43.780;25.948;2023-08-06T11:52:14;99674.75;;;25.01;100.00
45275;BME280;31019;43.780;25.948;2023-08-06T11:54:44;99664.56;;;25.70;100.00
45275;BME280;31019;43.780;25.948;2023-08-06T11:57:11;99672.19;;;25.34;100.00
45275;BME280;31019;43.780;25.948;2023-08-06T11:59:39;99672.47;;;24.74;100.00
45275;BME280;31019;43.780;25.948;2023-08-06T12:02:08;99684.84;;;25.30;100.00
45275;BME280;31019;43.780;25.948;2023-08-06T12:04:59;99683.84;;;25.35;100.00
45275;BME280;31019;43.780;25.948;2023-08-06T12:07:28;99676.56;;;24.88;100.00
45275;BME280;31019;43.780;25.948;2023-08-06T12:09:55;99676.31;;;25.62;100.00
45275;BME280;31019;43.780;25.948;2023-08-06T12:12:22;99673.34;;;25.75;100.00
45275;BME280;31019;43.780;25.948;2023-08-06T12:14:49;99687.44;;;25.27;100.00
45275;BME280;31019;43.780;25.948;2023-08-06T12:17:16;99690.16;;;25.48;100.00
45275;BME280;31019;43.780;25.948;2023-08-06T12:19:46;99693.44;;;25.32;100.00
45275;BME280;31019;43.780;25.948;2023-08-06T12:22:14;99690.72;;;25.32;100.00
45275;BME280;31019;43.780;25.948;2023-08-06T12:24:43;99679.09;;;24.94;100.00
45275;BME280;31019;43.780;25.948;2023-08-06T12:27:11;99661.63;;;25.03;100.00
45275;BME280;31019;43.780;25.948;2023-08-06T12:29:40;99656.28;;;24.86;100.00
45275;BME280;31019;43.780;25.948;2023-08-06T12:32:07;99641.84;;;25.03;100.00
45275;BME280;31019;43.780;25.948;2023-08-06T12:34:34;99623.38;;;25.59;100.00
45275;BME280;31019;43.780;25.948;2023-08-06T12:37:02;99606.50;;;26.20;100.00
45275;BME280;31019;43.780;25.948;2023-08-06T12:39:30;99627.53;;;25.77;100.00
45275;BME280;31019;43.780;25.948;2023-08-06T12:41:59;99637.44;;;25.61;100.00
45275;BME280;31019;43.780;25.948;2023-08-06T12:44:26;99650.19;;;25.27;100.00